METAR Data
IDs: Format: Raw Decoded Include TAF

Data at: 2233 UTC 20 Nov 2018

KMWL 202153Z AUTO 08006KT 10SM CLR 15/M03 A3030 RMK AO2 SLP259 T01501028
KMWL 202053Z AUTO 03004KT 10SM CLR 16/M03 A3031 RMK AO2 SLP262 T01561033 56024
KMWL 201953Z AUTO 10SM CLR 15/M03 A3033 RMK AO2 SLP268 T01501033
KMWL 201853Z AUTO 06006KT 10SM CLR 14/M03 A3036 RMK AO2 SLP278 T01441033
KMWL 201753Z AUTO 08005KT 10SM CLR 13/M03 A3038 RMK AO2 SLP288 T01331033 10139 20000 58002
KMWL 201653Z AUTO 07007KT 10SM CLR 13/M03 A3040 RMK AO2 SLP295 T01281033
KMWL 201553Z AUTO 08006KT 10SM CLR 09/01 A3040 RMK AO2 SLP295 T00940006
KMWL 201453Z AUTO 35003KT 10SM CLR 06/01 A3039 RMK AO2 SLP292 T00560011 52018
KMWL 201353Z AUTO 00000KT 9SM CLR 01/M01 A3037 RMK AO2 SLP285 T00061011
KMWL 201253Z AUTO 25005KT 10SM CLR 00/M02 A3036 RMK AO2 SLP282 T00001022
KMWL 201153Z AUTO 32003KT 10SM CLR 01/M02 A3034 RMK AO2 SLP273 T00061017 10028 20000 51013
KMWL 201053Z AUTO 32003KT 10SM CLR 02/M01 A3033 RMK AO2 SLP269 T00171011
KMWL 200953Z AUTO 35004KT 10SM CLR 02/M01 A3031 RMK AO2 SLP262 T00221006
KMWL 200853Z AUTO 30003KT 10SM CLR 01/M01 A3030 RMK AO2 SLP259 T00061006 51009
KMWL 200753Z AUTO 30003KT 10SM CLR 01/M01 A3029 RMK AO2 SLP257 T00111011
KMWL 200653Z AUTO 00000KT 10SM CLR 02/M01 A3028 RMK AO2 SLP255 T00171006
KMWL 200553Z AUTO 31003KT 10SM CLR 02/M01 A3027 RMK AO2 SLP251 T00221006 10100 20022 401441006 51011
KMWL 200453Z AUTO 00000KT 10SM CLR 03/00 A3026 RMK AO2 SLP248 T00280000
KMWL 200353Z AUTO 01005KT 10SM CLR 04/01 A3025 RMK AO2 SLP246 T00440006
KMWL 200253Z AUTO 01005KT 10SM CLR 06/01 A3024 RMK AO2 SLP241 T00560006 51022
KMWL 200153Z AUTO 02003KT 10SM CLR 07/02 A3022 RMK AO2 SLP236 T00670017
KMWL 200053Z AUTO 00000KT 10SM CLR 07/01 A3019 RMK AO2 SLP226 T00670006
KMWL 192353Z AUTO 00000KT 10SM CLR 10/01 A3017 RMK AO2 SLP216 T01000006 10144 20100 53006
KMWL 192253Z AUTO 02003KT 10SM CLR 13/00 A3015 RMK AO2 SLP210 T01330000
KMWL 192153Z AUTO VRB04KT 10SM CLR 14/00 A3015 RMK AO2 SLP208 T01390000
KMWL 192053Z AUTO 34007KT 10SM CLR 13/00 A3015 RMK AO2 SLP210 T01330000 56023
KMWL 191953Z AUTO VRB05KT 10SM CLR 13/M01 A3016 RMK AO2 SLP215 T01281006
KMWL 191853Z AUTO 03006KT 10SM CLR 12/M01 A3019 RMK AO2 SLP221 T01221006
KMWL 191753Z AUTO VRB04KT 10SM SCT040 10/M01 A3022 RMK AO2 SLP235 T01001011 10100 20028 58007
KMWL 191653Z AUTO 30003KT 10SM BKN041 08/M01 A3025 RMK AO2 SLP244 T00831011
KMWL 191553Z AUTO 00000KT 10SM BKN046 06/M02 A3025 RMK AO2 SLP246 T00561017
KMWL 191515Z AUTO 00000KT 10SM OVC031 04/M01 A3025 RMK AO2 T00441006
KMWL 191453Z AUTO 00000KT 10SM OVC029 04/M01 A3025 RMK AO2 SLP245 T00441006 53014
KMWL 191439Z AUTO 00000KT 10SM OVC029 04/M01 A3024 RMK AO2 T00441011
KMWL 191353Z AUTO 00000KT 10SM BKN035 OVC042 03/M01 A3022 RMK AO2 SLP236 T00331011
KMWL 191253Z AUTO 30003KT 10SM OVC035 03/M01 A3021 RMK AO2 SLP232 T00281011
KMWL 191213Z AUTO 32003KT 10SM OVC030 03/M01 A3021 RMK AO2 T00281011
KMWL 191153Z AUTO 00000KT 10SM OVC029 03/M01 A3020 RMK AO2 SLP230 T00281011 10028 21006 55002
KMWL 191133Z AUTO 00000KT 10SM OVC028 02/M01 A3020 RMK AO2 T00221011
KMWL 191053Z AUTO 00000KT 10SM OVC036 02/M02 A3020 RMK AO2 SLP228 T00221017